sensor_id;sensor_type;location;lat;lon;timestamp;pressure;altitude;pressure_sealevel;temperature;humidity
54236;BME280;40151;43.606;1.472;2023-03-16T00:00:01;99315.66;;;18.40;54.75
54236;BME280;40151;43.606;1.472;2023-03-16T00:02:26;99309.53;;;18.40;54.87
54236;BME280;40151;43.606;1.472;2023-03-16T00:04:52;99306.03;;;18.39;54.88
54236;BME280;40151;43.606;1.472;2023-03-16T00:07:19;99304.25;;;18.40;54.85
54236;BME280;40151;43.606;1.472;2023-03-16T00:09:45;99307.81;;;18.38;54.60
54236;BME280;40151;43.606;1.472;2023-03-16T00:12:14;99304.16;;;18.41;54.90
54236;BME280;40151;43.606;1.472;2023-03-16T00:14:49;99300.81;;;18.37;54.90
54236;BME280;40151;43.606;1.472;2023-03-16T00:17:17;99291.28;;;18.35;54.72
54236;BME280;40151;43.606;1.472;2023-03-16T00:20:03;99288.72;;;18.33;54.82
54236;BME280;40151;43.606;1.472;2023-03-16T00:22:31;99287.84;;;18.33;54.56
54236;BME280;40151;43.606;1.472;2023-03-16T00:24:57;99286.84;;;18.35;54.76
54236;BME280;40151;43.606;1.472;2023-03-16T00:27:23;99279.00;;;18.34;54.51
54236;BME280;40151;43.606;1.472;2023-03-16T00:29:51;99273.00;;;18.30;54.79
54236;BME280;40151;43.606;1.472;2023-03-16T00:32:31;99271.38;;;18.28;54.74
54236;BME280;40151;43.606;1.472;2023-03-16T00:34:57;99263.56;;;18.26;54.78
54236;BME280;40151;43.606;1.472;2023-03-16T00:37:24;99266.09;;;18.28;54.77
54236;BME280;40151;43.606;1.472;2023-03-16T00:39:51;99264.59;;;18.23;54.69
54236;BME280;40151;43.606;1.472;2023-03-16T00:42:18;99263.47;;;18.28;54.86
54236;BME280;40151;43.606;1.472;2023-03-16T00:44:44;99261.94;;;18.23;54.42
54236;BME280;40151;43.606;1.472;2023-03-16T00:47:11;99263.78;;;18.21;54.65
54236;BME280;40151;43.606;1.472;2023-03-16T00:49:41;99253.41;;;18.18;54.72
54236;BME280;40151;43.606;1.472;2023-03-16T00:52:07;99243.59;;;18.20;54.88
54236;BME280;40151;43.606;1.472;2023-03-16T00:54:33;99248.88;;;18.20;54.53
54236;BME280;40151;43.606;1.472;2023-03-16T00:56:59;99242.84;;;18.18;54.86
54236;BME280;40151;43.606;1.472;2023-03-16T00:59:25;99248.34;;;18.14;54.55
54236;BME280;40151;43.606;1.472;2023-03-16T01:01:52;99244.06;;;18.11;54.44
54236;BME280;40151;43.606;1.472;2023-03-16T01:04:18;99241.44;;;18.11;54.52
54236;BME280;40151;43.606;1.472;2023-03-16T01:06:44;99231.97;;;18.07;54.44
54236;BME280;40151;43.606;1.472;2023-03-16T01:09:10;99227.66;;;18.06;54.56
54236;BME280;40151;43.606;1.472;2023-03-16T01:11:36;99225.84;;;18.06;54.50
54236;BME280;40151;43.606;1.472;2023-03-16T01:14:02;99218.91;;;18.04;54.77
54236;BME280;40151;43.606;1.472;2023-03-16T01:16:28;99218.91;;;18.04;54.36
54236;BME280;40151;43.606;1.472;2023-03-16T01:18:54;99214.94;;;17.95;54.67
54236;BME280;40151;43.606;1.472;2023-03-16T01:21:21;99219.22;;;17.97;54.33
54236;BME280;40151;43.606;1.472;2023-03-16T01:23:47;99212.25;;;17.96;54.43
54236;BME280;40151;43.606;1.472;2023-03-16T01:26:12;99214.94;;;17.95;54.55
54236;BME280;40151;43.606;1.472;2023-03-16T01:45:55;99176.28;;;17.94;54.36
54236;BME280;40151;43.606;1.472;2023-03-16T01:48:46;99169.47;;;17.90;54.66
54236;BME280;40151;43.606;1.472;2023-03-16T01:54:21;99169.47;;;17.90;54.29
54236;BME280;40151;43.606;1.472;2023-03-16T01:56:59;99173.91;;;17.89;54.62
54236;BME280;40151;43.606;1.472;2023-03-16T01:59:37;99176.38;;;17.92;54.55
54236;BME280;40151;43.606;1.472;2023-03-16T02:02:05;99163.41;;;17.88;54.40
54236;BME280;40151;43.606;1.472;2023-03-16T02:05:05;99161.31;;;17.94;54.18
54236;BME280;40151;43.606;1.472;2023-03-16T02:07:37;99159.75;;;17.90;54.05
54236;BME280;40151;43.606;1.472;2023-03-16T02:10:05;99159.84;;;17.89;54.35
54236;BME280;40151;43.606;1.472;2023-03-16T02:12:32;99158.06;;;17.89;54.21
54236;BME280;40151;43.606;1.472;2023-03-16T02:14:57;99162.72;;;17.84;54.33
54236;BME280;40151;43.606;1.472;2023-03-16T02:17:26;99155.75;;;17.83;54.32
54236;BME280;40151;43.606;1.472;2023-03-16T02:20:13;99153.25;;;17.80;54.50
54236;BME280;40151;43.606;1.472;2023-03-16T02:22:44;99145.25;;;17.81;54.55
54236;BME280;40151;43.606;1.472;2023-03-16T02:25:12;99144.41;;;17.81;54.27
54236;BME280;40151;43.606;1.472;2023-03-16T02:30:14;99135.72;;;17.79;54.09
54236;BME280;40151;43.606;1.472;2023-03-16T02:32:41;99132.31;;;17.77;54.30
54236;BME280;40151;43.606;1.472;2023-03-16T02:35:09;99135.72;;;17.79;54.26
54236;BME280;40151;43.606;1.472;2023-03-16T02:37:37;99136.72;;;17.76;54.24
54236;BME280;40151;43.606;1.472;2023-03-16T02:40:22;99129.00;;;17.73;54.50
54236;BME280;40151;43.606;1.472;2023-03-16T02:43:10;99116.81;;;17.70;54.22
54236;BME280;40151;43.606;1.472;2023-03-16T02:45:49;99114.50;;;17.64;54.47
54236;BME280;40151;43.606;1.472;2023-03-16T02:48:29;99118.84;;;17.65;54.33
54236;BME280;40151;43.606;1.472;2023-03-16T02:50:56;99117.28;;;17.61;54.43
54236;BME280;40151;43.606;1.472;2023-03-16T02:53:22;99116.28;;;17.64;54.05
54236;BME280;40151;43.606;1.472;2023-03-16T02:55:48;99104.03;;;17.63;54.06
54236;BME280;40151;43.606;1.472;2023-03-16T02:58:14;99093.47;;;17.63;54.02
54236;BME280;40151;43.606;1.472;2023-03-16T03:00:41;99087.31;;;17.62;54.27
54236;BME280;40151;43.606;1.472;2023-03-16T03:03:06;99078.47;;;17.63;54.27
54236;BME280;40151;43.606;1.472;2023-03-16T03:05:33;99073.50;;;17.57;54.07
54236;BME280;40151;43.606;1.472;2023-03-16T03:07:59;99072.00;;;17.53;54.10
54236;BME280;40151;43.606;1.472;2023-03-16T03:10:25;99072.69;;;17.56;54.21
54236;BME280;40151;43.606;1.472;2023-03-16T03:12:51;99068.25;;;17.57;54.29
54236;BME280;40151;43.606;1.472;2023-03-16T03:15:17;99072.84;;;17.53;54.12
54236;BME280;40151;43.606;1.472;2023-03-16T03:17:43;99065.78;;;17.54;54.12
54236;BME280;40151;43.606;1.472;2023-03-16T03:20:10;99060.44;;;17.55;54.20
54236;BME280;40151;43.606;1.472;2023-03-16T03:22:42;99062.53;;;17.49;54.17
54236;BME280;40151;43.606;1.472;2023-03-16T03:25:09;99050.09;;;17.51;54.21
54236;BME280;40151;43.606;1.472;2023-03-16T03:27:35;99052.59;;;17.54;54.01
54236;BME280;40151;43.606;1.472;2023-03-16T03:30:00;99049.78;;;17.57;54.16
54236;BME280;40151;43.606;1.472;2023-03-16T03:32:26;99048.00;;;17.57;54.07
54236;BME280;40151;43.606;1.472;2023-03-16T03:34:51;99047.94;;;17.59;54.07
54236;BME280;40151;43.606;1.472;2023-03-16T03:37:17;99047.81;;;17.61;54.20
54236;BME280;40151;43.606;1.472;2023-03-16T03:39:43;99047.00;;;17.60;53.94
54236;BME280;40151;43.606;1.472;2023-03-16T03:42:10;99045.28;;;17.59;54.04
54236;BME280;40151;43.606;1.472;2023-03-16T03:44:35;99039.22;;;17.57;54.13
54236;BME280;40151;43.606;1.472;2023-03-16T03:47:01;99040.34;;;17.53;53.90
54236;BME280;40151;43.606;1.472;2023-03-16T03:49:27;99049.88;;;17.55;54.03
54236;BME280;40151;43.606;1.472;2023-03-16T03:51:53;99047.94;;;17.59;53.85
54236;BME280;40151;43.606;1.472;2023-03-16T03:54:20;99043.88;;;17.52;54.16
54236;BME280;40151;43.606;1.472;2023-03-16T03:56:45;99045.63;;;17.53;54.05
54236;BME280;40151;43.606;1.472;2023-03-16T03:59:10;99045.63;;;17.53;54.09
54236;BME280;40151;43.606;1.472;2023-03-16T04:01:36;99041.19;;;17.53;54.11
54236;BME280;40151;43.606;1.472;2023-03-16T04:04:01;99040.16;;;17.56;54.22
54236;BME280;40151;43.606;1.472;2023-03-16T04:06:27;99026.22;;;17.54;54.18
54236;BME280;40151;43.606;1.472;2023-03-16T04:08:52;99027.22;;;17.51;54.11
54236;BME280;40151;43.606;1.472;2023-03-16T04:11:19;99022.03;;;17.50;53.91
54236;BME280;40151;43.606;1.472;2023-03-16T04:13:45;99026.69;;;17.44;54.08
54236;BME280;40151;43.606;1.472;2023-03-16T04:16:10;99022.97;;;17.49;53.84
54236;BME280;40151;43.606;1.472;2023-03-16T04:18:40;99018.78;;;17.44;54.09
54236;BME280;40151;43.606;1.472;2023-03-16T04:21:07;99018.16;;;17.39;54.00
54236;BME280;40151;43.606;1.472;2023-03-16T04:23:36;99026.69;;;17.44;54.01
54236;BME280;40151;43.606;1.472;2023-03-16T04:26:02;99023.97;;;17.46;54.05
54236;BME280;40151;43.606;1.472;2023-03-16T04:28:30;99024.13;;;17.43;54.05
54236;BME280;40151;43.606;1.472;2023-03-16T04:31:04;99025.00;;;17.43;54.18
54236;BME280;40151;43.606;1.472;2023-03-16T04:33:34;99030.44;;;17.40;54.19
54236;BME280;40151;43.606;1.472;2023-03-16T04:36:00;99026.06;;;17.39;53.93
54236;BME280;40151;43.606;1.472;2023-03-16T04:38:27;99025.00;;;17.43;54.09
54236;BME280;40151;43.606;1.472;2023-03-16T04:40:53;99028.72;;;17.39;53.88
54236;BME280;40151;43.606;1.472;2023-03-16T04:43:19;99030.75;;;17.34;53.85
54236;BME280;40151;43.606;1.472;2023-03-16T04:45:44;99030.59;;;17.37;53.94
54236;BME280;40151;43.606;1.472;2023-03-16T04:48:10;99030.75;;;17.34;53.85
54236;BME280;40151;43.606;1.472;2023-03-16T04:50:35;99028.88;;;17.36;53.59
54236;BME280;40151;43.606;1.472;2023-03-16T04:53:01;99029.97;;;17.32;53.70
54236;BME280;40151;43.606;1.472;2023-03-16T04:55:26;99028.34;;;17.29;54.02
54236;BME280;40151;43.606;1.472;2023-03-16T04:57:52;99024.94;;;17.27;53.89
54236;BME280;40151;43.606;1.472;2023-03-16T05:00:17;99016.97;;;17.29;54.15
54236;BME280;40151;43.606;1.472;2023-03-16T05:02:44;99030.75;;;17.34;53.98
54236;BME280;40151;43.606;1.472;2023-03-16T05:05:10;99024.56;;;17.35;54.05
54236;BME280;40151;43.606;1.472;2023-03-16T05:07:35;99020.28;;;17.33;53.89
54236;BME280;40151;43.606;1.472;2023-03-16T05:10:01;99016.66;;;17.35;53.66
54236;BME280;40151;43.606;1.472;2023-03-16T05:12:26;99012.28;;;17.34;53.81
54236;BME280;40151;43.606;1.472;2023-03-16T05:14:51;99015.09;;;17.31;53.83
54236;BME280;40151;43.606;1.472;2023-03-16T05:17:17;99009.28;;;17.24;53.97
54236;BME280;40151;43.606;1.472;2023-03-16T05:19:42;99013.88;;;17.21;54.06
54236;BME280;40151;43.606;1.472;2023-03-16T05:22:08;99012.09;;;17.21;54.08
54236;BME280;40151;43.606;1.472;2023-03-16T05:24:34;99008.59;;;17.21;53.83
54236;BME280;40151;43.606;1.472;2023-03-16T05:27:01;99000.53;;;17.24;53.88
54236;BME280;40151;43.606;1.472;2023-03-16T05:29:27;98996.19;;;17.23;53.96
54236;BME280;40151;43.606;1.472;2023-03-16T05:31:55;98989.19;;;17.22;53.94
54236;BME280;40151;43.606;1.472;2023-03-16T05:34:21;98988.44;;;17.20;53.73
54236;BME280;40151;43.606;1.472;2023-03-16T05:36:46;98990.19;;;17.19;53.88
54236;BME280;40151;43.606;1.472;2023-03-16T05:39:12;98996.50;;;17.16;54.07
54236;BME280;40151;43.606;1.472;2023-03-16T05:41:38;98999.06;;;17.18;54.14
54236;BME280;40151;43.606;1.472;2023-03-16T05:44:03;98997.28;;;17.18;53.82
54236;BME280;40151;43.606;1.472;2023-03-16T05:46:29;99006.88;;;17.20;53.87
54236;BME280;40151;43.606;1.472;2023-03-16T05:48:54;99002.63;;;17.17;54.05
54236;BME280;40151;43.606;1.472;2023-03-16T05:51:20;99005.50;;;17.12;54.12
54236;BME280;40151;43.606;1.472;2023-03-16T05:53:45;99010.84;;;17.11;54.08
54236;BME280;40151;43.606;1.472;2023-03-16T05:56:10;99005.34;;;17.15;54.30
54236;BME280;40151;43.606;1.472;2023-03-16T05:58:36;99003.63;;;17.14;54.04
54236;BME280;40151;43.606;1.472;2023-03-16T06:01:02;99002.81;;;17.14;54.11
54236;BME280;40151;43.606;1.472;2023-03-16T06:03:29;98998.97;;;17.20;54.38
54236;BME280;40151;43.606;1.472;2023-03-16T06:05:55;99003.31;;;17.21;54.56
54236;BME280;40151;43.606;1.472;2023-03-16T06:08:21;99003.31;;;17.21;54.27
54236;BME280;40151;43.606;1.472;2023-03-16T06:10:46;98992.00;;;17.18;54.42
54236;BME280;40151;43.606;1.472;2023-03-16T06:13:14;98997.03;;;17.23;54.88
54236;BME280;40151;43.606;1.472;2023-03-16T06:15:40;98992.44;;;17.27;54.73
54236;BME280;40151;43.606;1.472;2023-03-16T06:18:06;98992.63;;;17.24;54.39
54236;BME280;40151;43.606;1.472;2023-03-16T06:20:31;98992.44;;;17.27;54.63
54236;BME280;40151;43.606;1.472;2023-03-16T06:22:57;98987.16;;;17.27;54.50
54236;BME280;40151;43.606;1.472;2023-03-16T06:25:22;98995.00;;;17.28;54.52
54236;BME280;40151;43.606;1.472;2023-03-16T06:27:48;99006.41;;;17.29;54.37
54236;BME280;40151;43.606;1.472;2023-03-16T06:30:14;99005.56;;;17.28;54.33
54236;BME280;40151;43.606;1.472;2023-03-16T06:32:40;98996.78;;;17.28;54.56
54236;BME280;40151;43.606;1.472;2023-03-16T06:35:07;99000.34;;;17.27;54.31
54236;BME280;40151;43.606;1.472;2023-03-16T06:37:33;98996.97;;;17.25;54.60
54236;BME280;40151;43.606;1.472;2023-03-16T06:39:59;98996.19;;;17.23;54.68
54236;BME280;40151;43.606;1.472;2023-03-16T06:42:25;98991.06;;;17.20;54.58
54236;BME280;40151;43.606;1.472;2023-03-16T06:44:50;98991.75;;;17.23;54.56
54236;BME280;40151;43.606;1.472;2023-03-16T06:47:17;98993.44;;;17.24;54.63
54236;BME280;40151;43.606;1.472;2023-03-16T06:49:42;98990.81;;;17.24;54.46
54236;BME280;40151;43.606;1.472;2023-03-16T06:52:08;98978.66;;;17.22;54.22
54236;BME280;40151;43.606;1.472;2023-03-16T06:54:38;98984.84;;;17.21;54.43
54236;BME280;40151;43.606;1.472;2023-03-16T06:57:04;98977.03;;;17.19;54.04
54236;BME280;40151;43.606;1.472;2023-03-16T06:59:29;98970.31;;;17.13;54.17
54236;BME280;40151;43.606;1.472;2023-03-16T07:01:55;98972.75;;;17.16;54.41
54236;BME280;40151;43.606;1.472;2023-03-16T07:04:21;98962.22;;;17.16;53.98
54236;BME280;40151;43.606;1.472;2023-03-16T07:06:46;98973.63;;;17.17;54.25
54236;BME280;40151;43.606;1.472;2023-03-16T07:09:11;98971.00;;;17.17;54.21
54236;BME280;40151;43.606;1.472;2023-03-16T07:11:37;98971.25;;;17.12;53.80
54236;BME280;40151;43.606;1.472;2023-03-16T07:14:03;98963.16;;;17.15;53.68
54236;BME280;40151;43.606;1.472;2023-03-16T07:16:29;98961.63;;;17.11;53.45
54236;BME280;40151;43.606;1.472;2023-03-16T07:18:54;98971.31;;;17.11;53.42
54236;BME280;40151;43.606;1.472;2023-03-16T07:21:20;98970.56;;;17.09;53.80
54236;BME280;40151;43.606;1.472;2023-03-16T07:23:46;98972.19;;;17.11;53.20
54236;BME280;40151;43.606;1.472;2023-03-16T07:26:11;98969.44;;;17.13;53.29
54236;BME280;40151;43.606;1.472;2023-03-16T07:28:37;98974.72;;;17.13;53.31
54236;BME280;40151;43.606;1.472;2023-03-16T07:31:04;98972.75;;;17.16;53.95
54236;BME280;40151;43.606;1.472;2023-03-16T07:33:30;98982.41;;;17.17;54.28
54236;BME280;40151;43.606;1.472;2023-03-16T07:35:56;98989.53;;;17.15;53.87
54236;BME280;40151;43.606;1.472;2023-03-16T07:38:22;98989.53;;;17.15;53.80
54236;BME280;40151;43.606;1.472;2023-03-16T07:40:47;98994.78;;;17.15;53.60
54236;BME280;40151;43.606;1.472;2023-03-16T07:43:13;98997.22;;;17.20;53.86
54236;BME280;40151;43.606;1.472;2023-03-16T07:45:38;98994.66;;;17.18;53.68
54236;BME280;40151;43.606;1.472;2023-03-16T07:48:04;98991.16;;;17.18;53.48
54236;BME280;40151;43.606;1.472;2023-03-16T07:50:30;98980.53;;;17.20;53.71
54236;BME280;40151;43.606;1.472;2023-03-16T07:52:55;98993.72;;;17.20;53.57
54236;BME280;40151;43.606;1.472;2023-03-16T07:55:20;99002.38;;;17.22;53.22
54236;BME280;40151;43.606;1.472;2023-03-16T07:57:46;98997.03;;;17.23;53.25
54236;BME280;40151;43.606;1.472;2023-03-16T08:00:13;98989.19;;;17.22;53.01
54236;BME280;40151;43.606;1.472;2023-03-16T08:02:39;98993.63;;;17.21;52.79
54236;BME280;40151;43.606;1.472;2023-03-16T08:05:04;98991.75;;;17.23;52.88
54236;BME280;40151;43.606;1.472;2023-03-16T08:07:30;98983.91;;;17.22;52.70
54236;BME280;40151;43.606;1.472;2023-03-16T08:09:56;98974.50;;;17.17;52.45
54236;BME280;40151;43.606;1.472;2023-03-16T08:12:22;98979.66;;;17.19;52.31
54236;BME280;40151;43.606;1.472;2023-03-16T08:14:47;98984.94;;;17.19;52.11
54236;BME280;40151;43.606;1.472;2023-03-16T08:17:13;98977.81;;;17.21;52.01
54236;BME280;40151;43.606;1.472;2023-03-16T08:19:38;98978.66;;;17.22;51.97
54236;BME280;40151;43.606;1.472;2023-03-16T08:22:04;98982.06;;;17.24;51.99
54236;BME280;40151;43.606;1.472;2023-03-16T08:24:31;98970.84;;;17.20;51.16
54236;BME280;40151;43.606;1.472;2023-03-16T08:26:57;98968.28;;;17.18;50.94
54236;BME280;40151;43.606;1.472;2023-03-16T08:29:24;98970.13;;;17.16;51.16
54236;BME280;40151;43.606;1.472;2023-03-16T08:31:51;98982.22;;;17.21;50.68
54236;BME280;40151;43.606;1.472;2023-03-16T08:34:18;98967.41;;;17.18;50.92
54236;BME280;40151;43.606;1.472;2023-03-16T08:36:44;98969.97;;;17.20;50.82
54236;BME280;40151;43.606;1.472;2023-03-16T08:39:10;98970.84;;;17.20;50.65
54236;BME280;40151;43.606;1.472;2023-03-16T08:41:35;98971.69;;;17.21;50.74
54236;BME280;40151;43.606;1.472;2023-03-16T08:44:01;98976.94;;;17.21;50.14
54236;BME280;40151;43.606;1.472;2023-03-16T08:46:27;98987.50;;;17.21;50.56
54236;BME280;40151;43.606;1.472;2023-03-16T08:48:53;98976.81;;;17.24;50.23
54236;BME280;40151;43.606;1.472;2023-03-16T08:51:20;98989.03;;;17.25;50.83
54236;BME280;40151;43.606;1.472;2023-03-16T08:53:45;98978.50;;;17.25;50.38
54236;BME280;40151;43.606;1.472;2023-03-16T08:56:12;98989.03;;;17.25;50.40
54236;BME280;40151;43.606;1.472;2023-03-16T08:58:39;98973.03;;;17.28;50.66
54236;BME280;40151;43.606;1.472;2023-03-16T09:01:12;98963.44;;;17.27;50.42
54236;BME280;40151;43.606;1.472;2023-03-16T09:03:38;98978.31;;;17.28;50.23
54236;BME280;40151;43.606;1.472;2023-03-16T09:06:06;98976.63;;;17.27;50.03
54236;BME280;40151;43.606;1.472;2023-03-16T09:08:33;98980.81;;;17.31;50.22
54236;BME280;40151;43.606;1.472;2023-03-16T09:11:05;98971.19;;;17.30;50.23
54236;BME280;40151;43.606;1.472;2023-03-16T09:13:32;98969.41;;;17.30;50.25
54236;BME280;40151;43.606;1.472;2023-03-16T09:15:58;98973.75;;;17.31;50.25
54236;BME280;40151;43.606;1.472;2023-03-16T09:18:25;98968.50;;;17.31;49.78
54236;BME280;40151;43.606;1.472;2023-03-16T09:20:55;98964.03;;;17.32;49.84
54236;BME280;40151;43.606;1.472;2023-03-16T09:23:21;98967.44;;;17.34;49.93
54236;BME280;40151;43.606;1.472;2023-03-16T09:25:47;98973.66;;;17.33;50.35
54236;BME280;40151;43.606;1.472;2023-03-16T09:28:12;98967.44;;;17.34;49.90
54236;BME280;40151;43.606;1.472;2023-03-16T09:30:38;98976.22;;;17.35;49.57
54236;BME280;40151;43.606;1.472;2023-03-16T09:33:03;98976.97;;;17.37;50.07
54236;BME280;40151;43.606;1.472;2023-03-16T09:35:29;98983.13;;;17.37;49.69
54236;BME280;40151;43.606;1.472;2023-03-16T09:37:56;98983.13;;;17.37;50.08
54236;BME280;40151;43.606;1.472;2023-03-16T09:40:24;98971.69;;;17.37;49.55
54236;BME280;40151;43.606;1.472;2023-03-16T09:45:50;98966.28;;;17.40;50.14
54236;BME280;40151;43.606;1.472;2023-03-16T09:48:20;98963.72;;;17.38;49.67
54236;BME280;40151;43.606;1.472;2023-03-16T09:50:46;98967.16;;;17.40;49.82
54236;BME280;40151;43.606;1.472;2023-03-16T09:53:34;98964.50;;;17.40;49.61
54236;BME280;40151;43.606;1.472;2023-03-16T09:56:09;98963.56;;;17.41;49.34
54236;BME280;40151;43.606;1.472;2023-03-16T09:58:35;98971.47;;;17.41;49.53
54236;BME280;40151;43.606;1.472;2023-03-16T10:06:11;98968.66;;;17.44;49.54
54236;BME280;40151;43.606;1.472;2023-03-16T10:11:46;98965.09;;;17.45;49.57
54236;BME280;40151;43.606;1.472;2023-03-16T10:16:49;98955.47;;;17.44;49.29
54236;BME280;40151;43.606;1.472;2023-03-16T10:19:20;98957.97;;;17.48;49.47
54236;BME280;40151;43.606;1.472;2023-03-16T10:21:51;98951.81;;;17.47;49.06
54236;BME280;40151;43.606;1.472;2023-03-16T10:24:49;98947.41;;;17.48;49.52
54236;BME280;40151;43.606;1.472;2023-03-16T10:27:24;98949.09;;;17.49;49.30
54236;BME280;40151;43.606;1.472;2023-03-16T10:29:52;98947.41;;;17.48;49.28
54236;BME280;40151;43.606;1.472;2023-03-16T10:32:18;98947.31;;;17.49;49.33
54236;BME280;40151;43.606;1.472;2023-03-16T10:34:52;98947.22;;;17.51;49.22
54236;BME280;40151;43.606;1.472;2023-03-16T10:37:20;98949.97;;;17.49;49.02
54236;BME280;40151;43.606;1.472;2023-03-16T10:39:48;98956.84;;;17.52;49.07
54236;BME280;40151;43.606;1.472;2023-03-16T10:42:19;98943.66;;;17.52;48.98
54236;BME280;40151;43.606;1.472;2023-03-16T10:44:46;98945.38;;;17.53;48.99
54236;BME280;40151;43.606;1.472;2023-03-16T10:47:23;98952.34;;;17.54;49.20
54236;BME280;40151;43.606;1.472;2023-03-16T10:49:49;98945.38;;;17.53;48.85
54236;BME280;40151;43.606;1.472;2023-03-16T10:54:50;98948.78;;;17.55;48.99
54236;BME280;40151;43.606;1.472;2023-03-16T10:57:21;98939.91;;;17.56;48.91
54236;BME280;40151;43.606;1.472;2023-03-16T10:59:49;98936.34;;;17.57;49.27
54236;BME280;40151;43.606;1.472;2023-03-16T11:02:18;98926.66;;;17.57;48.80
54236;BME280;40151;43.606;1.472;2023-03-16T11:04:45;98937.94;;;17.60;49.13
54236;BME280;40151;43.606;1.472;2023-03-16T11:07:19;98937.00;;;17.61;49.19
54236;BME280;40151;43.606;1.472;2023-03-16T11:09:45;98933.47;;;17.62;49.07
54236;BME280;40151;43.606;1.472;2023-03-16T11:14:47;98931.59;;;17.64;49.15
54236;BME280;40151;43.606;1.472;2023-03-16T11:17:48;98934.13;;;17.65;49.47
54236;BME280;40151;43.606;1.472;2023-03-16T11:20:28;98935.84;;;17.66;49.54
54236;BME280;40151;43.606;1.472;2023-03-16T11:22:57;98933.19;;;17.66;49.01
54236;BME280;40151;43.606;1.472;2023-03-16T11:25:41;98925.09;;;17.69;49.52
54236;BME280;40151;43.606;1.472;2023-03-16T11:28:16;98930.38;;;17.69;49.39
54236;BME280;40151;43.606;1.472;2023-03-16T11:33:22;98922.38;;;17.71;49.39
54236;BME280;40151;43.606;1.472;2023-03-16T11:36:03;98917.97;;;17.71;49.21
54236;BME280;40151;43.606;1.472;2023-03-16T11:41:26;98929.28;;;17.74;49.16
54236;BME280;40151;43.606;1.472;2023-03-16T11:44:15;98928.34;;;17.75;49.04
54236;BME280;40151;43.606;1.472;2023-03-16T11:49:44;98922.13;;;17.76;49.24
54236;BME280;40151;43.606;1.472;2023-03-16T12:03:47;98924.53;;;17.80;49.20
54236;BME280;40151;43.606;1.472;2023-03-16T12:12:21;98926.13;;;17.83;49.23
54236;BME280;40151;43.606;1.472;2023-03-16T12:17:34;98921.69;;;17.83;49.26
54236;BME280;40151;43.606;1.472;2023-03-16T12:22:51;98917.19;;;17.85;49.17
54236;BME280;40151;43.606;1.472;2023-03-16T12:25:22;98910.97;;;17.87;49.41
54236;BME280;40151;43.606;1.472;2023-03-16T12:27:58;98910.97;;;17.87;49.12
54236;BME280;40151;43.606;1.472;2023-03-16T12:30:39;98917.09;;;17.87;49.15
54236;BME280;40151;43.606;1.472;2023-03-16T12:41:25;98906.44;;;17.89;48.87
54236;BME280;40151;43.606;1.472;2023-03-16T12:44:14;98903.72;;;17.90;49.00
54236;BME280;40151;43.606;1.472;2023-03-16T12:47:07;98894.88;;;17.91;48.88
54236;BME280;40151;43.606;1.472;2023-03-16T12:49:37;98902.78;;;17.91;48.79
54236;BME280;40151;43.606;1.472;2023-03-16T12:52:09;98886.88;;;17.93;48.95
54236;BME280;40151;43.606;1.472;2023-03-16T12:54:47;98892.97;;;17.93;48.95
54236;BME280;40151;43.606;1.472;2023-03-16T12:57:15;98892.06;;;17.94;49.03
54236;BME280;40151;43.606;1.472;2023-03-16T12:59:44;98886.78;;;17.94;48.67
54236;BME280;40151;43.606;1.472;2023-03-16T13:02:19;98889.31;;;17.96;48.93
54236;BME280;40151;43.606;1.472;2023-03-16T13:04:48;98882.25;;;17.96;48.92
54236;BME280;40151;43.606;1.472;2023-03-16T13:07:23;98869.06;;;17.96;48.57
54236;BME280;40151;43.606;1.472;2023-03-16T13:09:55;98884.91;;;17.96;48.52
54236;BME280;40151;43.606;1.472;2023-03-16T13:12:32;98883.00;;;17.98;48.58
54236;BME280;40151;43.606;1.472;2023-03-16T13:15:47;98867.16;;;17.98;48.79
54236;BME280;40151;43.606;1.472;2023-03-16T13:21:00;98863.63;;;18.00;48.69
54236;BME280;40151;43.606;1.472;2023-03-16T13:26:39;98837.22;;;18.00;48.49
54236;BME280;40151;43.606;1.472;2023-03-16T13:29:25;98857.38;;;18.01;48.45
54236;BME280;40151;43.606;1.472;2023-03-16T13:31:55;98856.44;;;18.02;48.29
54236;BME280;40151;43.606;1.472;2023-03-16T13:34:29;98841.44;;;18.02;48.32
54236;BME280;40151;43.606;1.472;2023-03-16T13:36:57;98841.44;;;18.02;48.63
54236;BME280;40151;43.606;1.472;2023-03-16T13:39:28;98840.53;;;18.03;48.69
54236;BME280;40151;43.606;1.472;2023-03-16T13:41:58;98837.78;;;18.05;48.20
54236;BME280;40151;43.606;1.472;2023-03-16T13:44:25;98837.72;;;18.06;48.51
54236;BME280;40151;43.606;1.472;2023-03-16T13:46:50;98828.03;;;18.07;48.80
54236;BME280;40151;43.606;1.472;2023-03-16T13:49:17;98827.06;;;18.08;48.65
54236;BME280;40151;43.606;1.472;2023-03-16T13:51:42;98828.84;;;18.07;48.31
54236;BME280;40151;43.606;1.472;2023-03-16T13:54:21;98828.03;;;18.07;48.33
54236;BME280;40151;43.606;1.472;2023-03-16T13:56:49;98826.13;;;18.09;48.62
54236;BME280;40151;43.606;1.472;2023-03-16T13:59:15;98818.22;;;18.09;48.60
54236;BME280;40151;43.606;1.472;2023-03-16T14:01:43;98814.75;;;18.08;48.30
54236;BME280;40151;43.606;1.472;2023-03-16T14:04:11;98822.53;;;18.10;48.22
54236;BME280;40151;43.606;1.472;2023-03-16T14:06:40;98833.88;;;18.12;48.57
54236;BME280;40151;43.606;1.472;2023-03-16T14:09:14;98838.22;;;18.13;48.47
54236;BME280;40151;43.606;1.472;2023-03-16T14:11:42;98834.63;;;18.14;48.74
54236;BME280;40151;43.606;1.472;2023-03-16T14:14:14;98842.56;;;18.14;48.55
54236;BME280;40151;43.606;1.472;2023-03-16T14:16:40;98831.06;;;18.15;48.61
54236;BME280;40151;43.606;1.472;2023-03-16T14:21:43;98838.88;;;18.17;48.47
54236;BME280;40151;43.606;1.472;2023-03-16T14:26:46;98836.25;;;18.17;47.46
54236;BME280;40151;43.606;1.472;2023-03-16T14:29:30;98838.03;;;18.16;47.72
54236;BME280;40151;43.606;1.472;2023-03-16T14:31:57;98839.75;;;18.17;48.25
54236;BME280;40151;43.606;1.472;2023-03-16T14:34:37;98853.78;;;18.18;48.11
54236;BME280;40151;43.606;1.472;2023-03-16T14:37:11;98836.16;;;18.18;48.22
54236;BME280;40151;43.606;1.472;2023-03-16T14:39:37;98832.56;;;18.19;47.91